Terminal Aerodrome Forecast
Issued by NWS Wilmington, OH

Current Version | Previous Version | Text Only | Print | Product List | Glossary Off
Versions: 1 2 3 4 5 6 7 8 9 10 11 12 13 14 15 16 17 18 19 20 21 22 23 24 25

000
FTUS41 KILN 080500 RRA
TAFCVG
TAF
KCVG 080541Z 0806/0912 22007KT P6SM SCT040 BKN200
     FM081200 20012G20KT 5SM -SHRA BR VCTS OVC035CB
     FM081500 23012G24KT P6SM BKN035
     FM081800 24014G26KT P6SM VCTS BKN035CB
     FM090000 27008KT P6SM BKN040
     FM090600 28005KT P6SM SCT040
      TEMPO 0909/0912 4SM BR=

USA.gov is the U.S. government's official web portal to all federal, state and local government web resources and services.